Time;durP1;ratioP1;P1;durP2;ratioP2;P2;SDS_P1;SDS_P2;PMS_P1;PMS_P2;Temp;Humidity;BMP_temperature;BMP_pressure;BME280_temperature;BME280_humidity;BME280_pressure;Samples;Min_cycle;Max_cycle;Signal;HPM_P1;HPM_P2
2022/03/14 00:00:11;;;;;;;12.90;8.47;;;7.90;1.00;;;;;;5135298;27;20439;-68
2022/03/14 00:02:40;;;;;;;10.70;8.00;;;8.00;1.00;;;;;;5134632;27;20445;-68
2022/03/14 00:05:08;;;;;;;12.47;8.90;;;8.10;1.00;;;;;;5134821;27;20449;-68
2022/03/14 00:07:37;;;;;;;14.93;9.07;;;8.20;1.00;;;;;;5133974;27;20823;-68
2022/03/14 00:10:04;;;;;;;14.60;9.10;;;8.20;1.00;;;;;;5134594;27;20457;-68
2022/03/14 00:12:31;;;;;;;14.83;10.20;;;8.30;1.00;;;;;;5133707;27;20938;-68
2022/03/14 00:14:59;;;;;;;11.50;8.10;;;8.40;1.00;;;;;;5134897;27;20450;-68
2022/03/14 00:17:26;;;;;;;16.23;8.67;;;8.60;1.00;;;;;;5133788;27;20933;-68
2022/03/14 00:19:59;;;;;;;12.90;8.47;;;8.50;1.00;;;;;;5134635;27;20447;-68
2022/03/14 00:22:26;;;;;;;13.30;8.53;;;8.50;1.00;;;;;;5133861;27;20475;-68
2022/03/14 00:24:53;;;;;;;14.40;8.30;;;8.50;1.00;;;;;;5134909;27;20507;-68
2022/03/14 00:27:20;;;;;;;18.53;8.27;;;8.50;1.00;;;;;;5134194;27;20484;-67
2022/03/14 00:29:47;;;;;;;12.30;8.67;;;8.50;1.00;;;;;;5133658;27;20446;-68
2022/03/14 00:32:14;;;;;;;17.43;8.53;;;8.60;1.00;;;;;;5134553;27;20483;-68
2022/03/14 00:34:41;;;;;;;11.07;7.87;;;8.50;1.00;;;;;;5133922;27;20475;-68
2022/03/14 00:37:09;;;;;;;10.43;7.70;;;8.60;1.00;;;;;;5134032;27;20478;-68
2022/03/14 00:39:37;;;;;;;12.70;8.20;;;8.60;1.00;;;;;;5133503;27;20451;-68
2022/03/14 00:42:04;;;;;;;11.23;8.50;;;8.60;1.00;;;;;;5132951;27;20927;-68
2022/03/14 00:44:31;;;;;;;13.07;7.47;;;8.50;1.00;;;;;;5133646;27;20479;-68
2022/03/14 00:46:58;;;;;;;18.10;9.13;;;8.50;1.00;;;;;;5133457;27;20935;-68
2022/03/14 00:49:25;;;;;;;11.60;8.07;;;8.60;1.00;;;;;;5133864;27;20533;-68
2022/03/14 00:51:52;;;;;;;14.50;8.40;;;8.50;1.00;;;;;;5134235;27;20447;-68
2022/03/14 00:54:20;;;;;;;11.30;7.87;;;8.70;1.00;;;;;;5133721;27;20534;-68
2022/03/14 00:56:47;;;;;;;11.37;8.90;;;9.00;1.00;;;;;;5132692;27;20946;-68
2022/03/14 00:59:14;;;;;;;10.53;7.70;;;9.00;1.00;;;;;;5133891;27;21088;-68
2022/03/14 01:01:41;;;;;;;11.73;7.90;;;9.00;1.00;;;;;;5133396;27;20546;-68
2022/03/14 01:04:08;;;;;;;11.27;7.93;;;8.90;1.00;;;;;;5133988;27;20445;-68
2022/03/14 01:06:35;;;;;;;10.13;7.20;;;8.90;1.00;;;;;;5133280;27;20445;-67
2022/03/14 01:09:02;;;;;;;11.57;8.37;;;8.80;1.00;;;;;;5133804;27;20994;-67
2022/03/14 01:11:30;;;;;;;13.50;9.47;;;8.90;1.00;;;;;;5133087;27;21038;-67
2022/03/14 01:13:57;;;;;;;12.00;8.47;;;9.10;1.00;;;;;;5133837;27;20445;-67
2022/03/14 01:16:24;;;;;;;13.63;9.37;;;9.30;1.00;;;;;;5133474;27;20882;-67
2022/03/14 01:18:51;;;;;;;15.03;8.93;;;9.40;1.00;;;;;;5133639;27;20458;-67
2022/03/14 01:21:18;;;;;;;15.87;9.90;;;9.60;1.00;;;;;;5133261;27;20803;-67
2022/03/14 01:23:45;;;;;;;16.60;9.00;;;;;;;;;;5133161;27;20443;-67
2022/03/14 01:26:13;;;;;;;15.60;10.67;;;;;;;;;;5132904;27;20451;-68
2022/03/14 01:28:41;;;;;;;11.83;9.30;;;;;;;;;;5132503;27;20477;-68
2022/03/14 01:31:09;;;;;;;12.63;10.13;;;;;;;;;;5133854;27;20446;-68
2022/03/14 01:33:36;;;;;;;18.63;11.57;;;;;;;;;;5132778;27;20453;-68
2022/03/14 01:36:03;;;;;;;15.87;10.03;;;;;;;;;;5132758;27;20445;-68
2022/03/14 01:38:31;;;;;;;15.30;11.20;;;;;;;;;;5132689;27;20450;-68
2022/03/14 01:40:58;;;;;;;16.10;11.83;;;;;;;;;;5133141;27;20457;-67
2022/03/14 01:43:25;;;;;;;16.17;11.70;;;;;;;;;;5132245;27;20945;-68
2022/03/14 01:45:55;;;;;;;13.63;11.30;;;;;;;;;;5132901;27;20530;-67
2022/03/14 01:48:23;;;;;;;17.37;11.90;;;;;;;;;;5133669;27;20478;-67
2022/03/14 01:50:50;;;;;;;16.00;12.20;;;;;;;;;;5133303;27;20474;-67
2022/03/14 01:53:18;;;;;;;20.00;12.00;;;;;;;;;;5133003;27;20812;-67
2022/03/14 01:55:45;;;;;;;19.30;13.03;;;;;;;;;;5131984;27;20529;-68
2022/03/14 01:58:13;;;;;;;18.33;11.73;;;;;;;;;;5133043;27;20435;-68
2022/03/14 02:00:41;;;;;;;13.40;11.03;;;;;;;;;;5118626;27;20446;-68
2022/03/14 02:03:09;;;;;;;16.20;12.27;;;;;;;;;;5132549;27;20470;-67
2022/03/14 02:05:37;;;;;;;17.27;11.70;;;;;;;;;;5131698;27;20964;-68
2022/03/14 02:08:04;;;;;;;16.77;12.53;;;;;;;;;;5132318;27;20478;-67
2022/03/14 02:10:33;;;;;;;19.83;14.10;;;;;;;;;;5132019;27;20519;-68
2022/03/14 02:13:04;;;;;;;17.13;12.67;;;;;;;;;;5132509;27;20443;-67
2022/03/14 02:15:31;;;;;;;16.43;12.03;;;;;;;;;;5131306;27;20965;-68
2022/03/14 02:17:58;;;;;;;18.03;11.70;;;;;;;;;;5132087;27;20541;-68
2022/03/14 02:20:27;;;;;;;19.90;13.00;;;;;;;;;;5132266;27;20450;-67
2022/03/14 02:22:54;;;;;;;19.53;12.77;;;;;;;;;;5132259;27;20474;-67
2022/03/14 02:25:22;;;;;;;16.13;12.13;;;;;;;;;;5132116;27;20446;-67
2022/03/14 02:27:49;;;;;;;17.03;11.43;;;;;;;;;;5131745;27;20482;-67
2022/03/14 02:30:17;;;;;;;15.70;12.10;;;;;;;;;;5132378;27;20482;-67
2022/03/14 02:32:44;;;;;;;17.10;12.70;;;;;;;;;;5131692;27;20534;-67
2022/03/14 02:35:11;;;;;;;14.87;11.80;;;;;;;;;;5132256;27;20533;-67
2022/03/14 02:37:40;;;;;;;17.73;12.63;;;;;;;;;;5131597;27;20443;-67
2022/03/14 02:40:08;;;;;;;16.47;12.90;;;;;;;;;;5132243;27;20443;-67
2022/03/14 02:42:36;;;;;;;17.60;12.27;;;;;;;;;;5131646;27;20447;-67
2022/03/14 02:45:04;;;;;;;15.37;12.17;;;;;;;;;;5132012;27;20442;-67
2022/03/14 02:47:31;;;;;;;17.57;11.70;;;;;;;;;;5131216;27;20447;-67
2022/03/14 02:49:58;;;;;;;14.50;10.90;;;;;;;;;;5132039;27;20974;-68
2022/03/14 02:52:26;;;;;;;16.50;11.70;;;;;;;;;;5131463;27;20873;-68
2022/03/14 02:54:54;;;;;;;17.53;12.90;;;;;;;;;;5132348;27;20439;-68
2022/03/14 02:57:21;;;;;;;16.50;13.30;;;;;;;;;;5131587;27;20478;-68
2022/03/14 02:59:49;;;;;;;12.93;9.53;;;;;;;;;;5130781;28;20451;-68
2022/03/14 03:02:18;;;;;;;18.03;11.70;;;;;;;;;;5131447;28;20451;-68
2022/03/14 03:04:45;;;;;;;15.80;11.80;;;;;;;;;;5133064;27;20866;-68
2022/03/14 03:07:12;;;;;;;18.40;11.93;;;;;;;;;;5135737;27;20482;-68
2022/03/14 03:09:39;;;;;;;14.83;11.67;;;;;;;;;;5135772;27;20486;-68
2022/03/14 03:12:13;;;;;;;16.83;11.50;;;;;;;;;;5136098;27;20445;-68
2022/03/14 03:14:40;;;;;;;17.17;12.27;;;;;;;;;;5135329;27;20449;-68
2022/03/14 03:17:08;;;;;;;19.87;12.53;;;;;;;;;;5135890;27;20445;-68
2022/03/14 03:19:35;;;;;;;19.47;12.00;;;;;;;;;;5135547;27;20451;-68
2022/03/14 03:22:02;;;;;;;22.10;11.93;;;;;;;;;;5136009;27;20566;-68
2022/03/14 03:24:30;;;;;;;15.47;10.63;;;;;;;;;;5134950;27;20574;-68
2022/03/14 03:26:57;;;;;;;14.60;9.90;;;;;;;;;;5135350;27;20533;-68
2022/03/14 03:29:25;;;;;;;17.17;13.00;;;;;;;;;;5135778;27;21037;-68
2022/03/14 03:31:52;;;;;;;17.43;12.57;;;;;;;;;;5135938;27;20826;-68
2022/03/14 03:34:19;;;;;;;17.57;12.60;;;;;;;;;;5135706;27;20442;-68
2022/03/14 03:36:47;;;;;;;15.60;11.70;;;;;;;;;;5134563;27;20439;-67
2022/03/14 03:39:14;;;;;;;15.37;11.40;;;;;;;;;;5135425;27;20533;-68
2022/03/14 03:41:41;;;;;;;14.30;10.20;;;;;;;;;;5134927;27;20539;-68
2022/03/14 03:44:09;;;;;;;17.40;12.07;;;;;;;;;;5134921;27;20475;-68
2022/03/14 03:46:38;;;;;;;19.50;12.20;;;;;;;;;;5134425;27;20443;-68
2022/03/14 03:49:05;;;;;;;16.27;12.33;;;;;;;;;;5135575;27;20565;-69
2022/03/14 03:51:32;;;;;;;17.17;12.00;;;;;;;;;;5135060;27;20446;-69
2022/03/14 03:53:59;;;;;;;14.97;10.67;;;;;;;;;;5135475;27;20443;-69
2022/03/14 03:56:27;;;;;;;20.67;11.70;;;;;;;;;;5134578;27;20964;-68
2022/03/14 03:58:54;;;;;;;14.37;9.77;;;;;;;;;;5135332;27;20489;-68
2022/03/14 04:01:23;;;;;;;19.97;12.63;;;;;;;;;;5135152;27;20495;-68
2022/03/14 04:03:55;;;;;;;14.40;10.40;;;;;;;;;;5135124;27;20443;-68
2022/03/14 04:06:25;;;;;;;16.77;10.90;;;9.70;1.00;;;;;;5134949;27;20438;-67
2022/03/14 04:08:55;;;;;;;15.67;10.97;;;9.50;99.90;;;;;;5135533;27;20478;-68
2022/03/14 04:11:22;;;;;;;16.40;11.27;;;9.60;99.90;;;;;;5134936;27;20969;-68
2022/03/14 04:13:49;;;;;;;17.60;10.90;;;9.50;99.90;;;;;;5134348;27;20521;-68
2022/03/14 04:16:17;;;;;;;16.00;12.00;;;9.60;99.90;;;;;;5134552;27;20534;-68
2022/03/14 04:18:45;;;;;;;13.37;8.73;;;9.60;99.90;;;;;;5134011;27;20450;-68
2022/03/14 04:21:14;;;;;;;15.57;9.67;;;9.60;99.90;;;;;;5134369;27;20541;-68
2022/03/14 04:23:41;;;;;;;14.00;10.33;;;9.60;99.90;;;;;;5134428;27;20447;-68
2022/03/14 04:26:08;;;;;;;16.53;9.33;;;9.60;99.90;;;;;;5134089;27;20537;-68
2022/03/14 04:28:36;;;;;;;13.90;9.80;;;9.50;99.90;;;;;;5133376;27;20474;-68
2022/03/14 04:31:04;;;;;;;12.70;9.50;;;9.50;99.90;;;;;;5134583;27;20850;-68
2022/03/14 04:33:31;;;;;;;13.67;9.77;;;9.40;99.90;;;;;;5133633;27;20451;-68
2022/03/14 04:35:58;;;;;;;15.03;10.67;;;9.40;99.90;;;;;;5133992;27;20450;-68
2022/03/14 04:38:27;;;;;;;12.93;9.67;;;9.30;99.90;;;;;;5134260;27;20454;-68
2022/03/14 04:40:55;;;;;;;13.47;9.17;;;9.20;99.90;;;;;;5134706;27;20494;-69
2022/03/14 04:43:22;;;;;;;20.70;9.77;;;9.10;99.90;;;;;;5134548;27;20457;-68
2022/03/14 04:45:50;;;;;;;12.83;8.00;;;9.10;99.90;;;;;;5133263;27;20488;-69
2022/03/14 04:48:17;;;;;;;15.10;8.57;;;9.10;99.90;;;;;;5134492;27;20831;-68
2022/03/14 04:50:45;;;;;;;13.73;9.57;;;9.20;99.90;;;;;;5133726;27;21477;-68
2022/03/14 04:53:12;;;;;;;11.30;8.57;;;9.30;99.90;;;;;;5134210;27;20472;-68
2022/03/14 04:55:41;;;;;;;11.73;6.70;;;9.20;99.90;;;;;;5133256;27;20867;-67
2022/03/14 04:58:12;;;;;;;8.57;5.50;;;9.30;99.90;;;;;;5133872;27;20478;-68
2022/03/14 05:00:39;;;;;;;8.30;6.20;;;9.20;99.90;;;;;;5133571;27;20435;-67
2022/03/14 05:03:08;;;;;;;8.63;5.23;;;9.10;99.90;;;;;;5134206;27;20833;-67
2022/03/14 05:05:35;;;;;;;6.37;5.00;;;9.10;99.90;;;;;;5120130;27;20463;-67
2022/03/14 05:08:03;;;;;;;7.10;4.97;;;9.10;99.90;;;;;;5133500;27;20446;-67
2022/03/14 05:10:30;;;;;;;8.13;4.90;;;9.00;99.90;;;;;;5133120;27;21019;-67
2022/03/14 05:13:01;;;;;;;4.60;4.00;;;9.00;99.90;;;;;;5133906;27;20816;-68
2022/03/14 05:15:28;;;;;;;4.20;2.80;;;9.00;99.90;;;;;;5132992;27;20476;-68
2022/03/14 05:17:55;;;;;;;4.60;2.50;;;9.00;99.90;;;;;;5133714;27;20533;-68
2022/03/14 05:20:22;;;;;;;4.20;2.27;;;9.00;99.90;;;;;;5134137;27;20454;-68
2022/03/14 05:22:51;;;;;;;2.60;2.10;;;9.00;99.90;;;;;;5133192;27;20490;-68
2022/03/14 05:25:21;;;;;;;2.17;1.70;;;9.00;99.90;;;;;;5133244;27;20541;-68
2022/03/14 05:27:48;;;;;;;2.20;1.60;;;9.00;99.90;;;;;;5132163;27;20449;-68
2022/03/14 05:30:16;;;;;;;2.13;1.30;;;9.00;99.90;;;;;;5133118;27;20494;-68
2022/03/14 05:32:44;;;;;;;1.57;1.23;;;8.90;99.90;;;;;;5132307;27;20461;-68
2022/03/14 05:35:15;;;;;;;1.87;1.50;;;8.90;99.90;;;;;;5132515;27;20509;-68
2022/03/14 05:37:42;;;;;;;3.40;2.40;;;8.80;99.90;;;;;;5132349;27;20526;-68
2022/03/14 05:40:10;;;;;;;3.83;2.97;;;8.70;99.90;;;;;;5133314;27;20453;-68
2022/03/14 05:42:37;;;;;;;5.03;1.97;;;8.60;99.90;;;;;;5132749;27;20462;-68
2022/03/14 05:45:05;;;;;;;4.57;2.63;;;8.60;99.90;;;;;;5132543;27;20447;-68
2022/03/14 05:47:33;;;;;;;2.60;2.20;;;8.60;99.90;;;;;;5132076;27;20461;-68
2022/03/14 05:50:00;;;;;;;3.93;2.30;;;8.60;99.90;;;;;;5132522;27;21008;-68
2022/03/14 05:52:27;;;;;;;3.07;1.67;;;8.60;99.90;;;;;;5132493;27;20520;-68
2022/03/14 05:54:54;;;;;;;2.33;1.57;;;8.60;99.90;;;;;;5132735;27;20923;-68
2022/03/14 05:57:21;;;;;;;1.40;1.00;;;8.60;99.90;;;;;;5133381;27;20446;-68
2022/03/14 05:59:48;;;;;;;1.57;1.47;;;8.70;99.90;;;;;;5132157;27;20511;-68
2022/03/14 06:02:20;;;;;;;1.10;0.77;;;8.70;99.90;;;;;;5132963;27;20458;-68
2022/03/14 06:04:48;;;;;;;1.27;1.00;;;8.70;99.90;;;;;;5132425;27;20437;-68
2022/03/14 06:07:15;;;;;;;2.37;1.43;;;8.70;99.90;;;;;;5133039;27;20795;-68
2022/03/14 06:09:42;;;;;;;1.50;0.80;;;8.70;99.90;;;;;;5132172;27;20478;-68
2022/03/14 06:12:10;;;;;;;1.20;0.87;;;8.60;99.90;;;;;;5132697;27;20434;-68
2022/03/14 06:14:37;;;;;;;1.40;0.90;;;8.60;99.90;;;;;;5131876;27;20454;-68
2022/03/14 06:17:05;;;;;;;1.37;0.93;;;8.60;99.90;;;;;;5132286;27;20449;-67
2022/03/14 06:19:31;;;;;;;1.13;0.67;;;8.60;99.90;;;;;;5118294;27;20455;-68
2022/03/14 06:22:00;;;;;;;1.23;0.90;;;8.50;99.90;;;;;;5132978;27;20528;-68
2022/03/14 06:24:27;;;;;;;2.37;0.80;;;8.40;99.90;;;;;;5132115;27;20447;-67
2022/03/14 06:26:53;;;;;;;0.80;0.80;;;8.40;99.90;;;;;;5132383;27;20533;-68
2022/03/14 06:29:21;;;;;;;1.23;0.93;;;8.40;99.90;;;;;;5132441;27;20574;-68
2022/03/14 06:31:48;;;;;;;1.20;0.90;;;8.30;99.90;;;;;;5131458;27;20451;-68
2022/03/14 06:34:15;;;;;;;1.40;0.90;;;8.40;99.90;;;;;;5131918;27;21057;-67
2022/03/14 06:36:44;;;;;;;1.03;0.80;;;8.30;99.90;;;;;;5131851;27;20450;-67
2022/03/14 06:39:12;;;;;;;0.87;0.83;;;8.40;99.90;;;;;;5131635;27;20526;-68
2022/03/14 06:41:39;;;;;;;1.70;1.10;;;8.50;99.90;;;;;;5131701;27;20537;-68
2022/03/14 06:44:07;;;;;;;1.00;0.80;;;8.30;99.90;;;;;;5132431;27;20486;-67
2022/03/14 06:46:33;;;;;;;7.23;1.10;;;8.40;99.90;;;;;;5131222;27;20870;-67
2022/03/14 06:49:00;;;;;;;2.50;0.90;;;8.50;99.90;;;;;;5131497;27;20458;-69
2022/03/14 06:51:27;;;;;;;1.70;1.03;;;8.40;99.90;;;;;;5131603;27;20541;-68
2022/03/14 06:53:54;;;;;;;1.20;0.80;;;8.40;99.90;;;;;;5132012;27;20457;-67
2022/03/14 06:56:22;;;;;;;1.27;1.17;;;8.40;99.90;;;;;;5132115;27;20832;-68
2022/03/14 06:58:49;;;;;;;3.47;1.10;;;8.40;99.90;;;;;;5131344;27;20447;-67
2022/03/14 07:01:17;;;;;;;1.47;0.97;;;8.60;99.90;;;;;;5131826;28;20537;-67
2022/03/14 07:03:43;;;;;;;1.50;0.90;;;8.40;99.90;;;;;;5131190;28;20443;-68
2022/03/14 07:06:10;;;;;;;2.80;1.30;;;8.50;99.90;;;;;;5131791;28;20522;-67
2022/03/14 07:08:37;;;;;;;1.60;0.93;;;8.60;5.70;;;;;;5131394;28;20443;-68
2022/03/14 07:11:04;;;;;;;1.50;1.23;;;8.50;42.30;;;;;;5131747;28;20486;-68
2022/03/14 07:13:32;;;;;;;0.90;0.70;;;8.50;99.90;;;;;;5130814;28;20442;-68
2022/03/14 07:15:59;;;;;;;1.50;1.07;;;8.60;1.00;;;;;;5131331;28;20457;-68
2022/03/14 07:18:26;;;;;;;1.13;0.77;;;8.90;99.90;;;;;;5131384;28;20447;-68
2022/03/14 07:20:53;;;;;;;2.07;1.10;;;9.10;1.00;;;;;;5131794;28;20992;-68
2022/03/14 07:23:20;;;;;;;1.13;0.80;;;9.00;1.00;;;;;;5132638;28;20648;-68
2022/03/14 07:25:46;;;;;;;1.23;1.00;;;9.00;1.00;;;;;;5130968;28;20443;-68
2022/03/14 07:28:13;;;;;;;1.57;0.90;;;8.90;1.00;;;;;;5132189;28;20525;-68
2022/03/14 07:30:42;;;;;;;1.20;0.87;;;8.90;1.00;;;;;;5131008;28;20569;-68
2022/03/14 07:33:09;;;;;;;1.80;0.83;;;8.80;1.00;;;;;;5131831;28;20526;-68
2022/03/14 07:35:36;;;;;;;1.33;0.67;;;;;;;;;;5130178;28;20960;-68
2022/03/14 07:38:03;;;;;;;1.87;0.80;;;;;;;;;;5131486;28;20447;-67
2022/03/14 07:40:31;;;;;;;0.90;0.80;;;;;;;;;;5130784;28;20482;-68
2022/03/14 07:42:59;;;;;;;1.33;0.90;;;;;;;;;;5131433;28;20450;-68
2022/03/14 07:45:27;;;;;;;3.50;0.70;;;;;;;;;;5130760;28;20453;-68
2022/03/14 07:47:57;;;;;;;2.20;0.77;;;;;;;;;;5131837;28;20491;-68
2022/03/14 07:50:24;;;;;;;1.57;0.77;;;;;;;;;;5132881;27;20505;-67
2022/03/14 07:52:52;;;;;;;1.63;0.80;;;;;;;;;;5135018;27;21001;-68
2022/03/14 07:55:19;;;;;;;0.83;0.70;;;;;;;;;;5134372;27;20957;-68
2022/03/14 07:57:46;;;;;;;2.20;0.70;;;;;;;;;;5134821;27;20532;-68
2022/03/14 08:00:15;;;;;;;1.10;0.70;;;;;;;;;;5135234;27;20541;-67
2022/03/14 08:02:42;;;;;;;1.13;0.60;;;;;;;;;;5134980;27;20442;-67
2022/03/14 08:05:13;;;;;;;1.07;0.77;;;;;;;;;;5134815;27;20435;-67
2022/03/14 08:07:45;;;;;;;1.80;0.70;;;;;;;;;;5134665;27;20435;-67
2022/03/14 08:10:13;;;;;;;1.80;0.73;;;;;;;;;;5134957;27;20485;-67
2022/03/14 08:12:47;;;;;;;0.93;0.70;;;;;;;;;;5134509;27;20446;-68
2022/03/14 08:15:19;;;;;;;1.70;0.63;;;;;;;;;;5134768;27;20455;-67
2022/03/14 08:17:46;;;;;;;0.90;0.67;;;;;;;;;;5134476;27;20474;-68
2022/03/14 08:20:14;;;;;;;2.03;0.60;;;;;;;;;;5134969;27;20442;-68
2022/03/14 08:22:41;;;;;;;2.87;0.80;;;;;;;;;;5133883;27;21070;-68
2022/03/14 08:25:09;;;;;;;2.00;1.00;;;;;;;;;;5134741;27;20461;-68
2022/03/14 08:27:37;;;;;;;1.97;0.83;;;;;;;;;;5134164;27;20554;-68
2022/03/14 08:30:04;;;;;;;2.57;0.90;;;;;;;;;;5134663;27;20551;-68
2022/03/14 08:32:32;;;;;;;1.53;0.80;;;;;;;;;;5133725;27;20443;-68
2022/03/14 08:35:07;;;;;;;1.93;1.00;;;;;;;;;;5133719;27;20447;-69
2022/03/14 08:37:36;;;;;;;2.30;1.00;;;;;;;;;;5133610;27;20910;-68
2022/03/14 08:40:03;;;;;;;2.10;0.90;;;;;;;;;;5134714;27;20446;-67
2022/03/14 08:42:30;;;;;;;2.70;0.93;;;;;;;;;;5133694;27;20461;-67
2022/03/14 08:44:58;;;;;;;4.90;1.23;;;;;;;;;;5134257;27;20449;-66
2022/03/14 08:47:25;;;;;;;4.27;1.00;;;;;;;;;;5133962;27;20534;-68
2022/03/14 08:49:53;;;;;;;3.43;1.00;;;;;;;;;;5134418;27;20539;-67
2022/03/14 08:52:20;;;;;;;1.70;0.97;;;;;;;;;;5134210;27;20522;-67
2022/03/14 08:54:48;;;;;;;2.50;0.90;;;;;;;;;;5132834;27;20491;-67
2022/03/14 08:57:16;;;;;;;0.93;0.63;;;;;;;;;;5133928;27;20453;-67
2022/03/14 08:59:44;;;;;;;1.00;0.70;;;;;;;;;;5133665;27;20469;-67
2022/03/14 09:02:11;;;;;;;2.87;1.30;;;;;;;;;;5132630;27;20447;-67
2022/03/14 09:04:38;;;;;;;1.60;1.07;;;;;;;;;;5132674;27;20475;-67
2022/03/14 09:07:06;;;;;;;3.40;1.20;;;;;;;;;;5119921;27;20478;-66
2022/03/14 09:09:34;;;;;;;4.10;1.30;;;;;;;;;;5132347;27;20447;-66
2022/03/14 09:12:02;;;;;;;4.10;0.73;;;;;;;;;;5123204;27;20471;-68
2022/03/14 09:14:31;;;;;;;7.00;1.13;;;;;;;;;;5130802;27;20442;-68
2022/03/14 09:16:58;;;;;;;2.80;2.10;;;;;;;;;;5132059;27;20454;-68
2022/03/14 09:19:27;;;;;;;1.20;0.90;;;;;;;;;;5130548;27;20439;-68
2022/03/14 09:21:58;;;;;;;1.47;0.90;;;;;;;;;;5128508;27;21000;-68
2022/03/14 09:24:26;;;;;;;2.53;1.10;;;;;;;;;;5128249;27;20446;-68
2022/03/14 09:26:55;;;;;;;6.73;1.30;;;;;;;;;;5126128;27;20987;-68
2022/03/14 09:29:24;;;;;;;3.77;0.90;;;;;;;;;;5129263;27;20946;-68
2022/03/14 09:31:52;;;;;;;3.30;1.17;;;;;;;;;;5128585;27;20506;-68
2022/03/14 09:34:19;;;;;;;1.73;1.00;;;;;;;;;;5127729;27;20453;-68
2022/03/14 09:36:46;;;;;;;3.33;1.10;;;;;;;;;;5126222;27;20458;-67
2022/03/14 09:39:15;;;;;;;3.90;1.07;;;;;;;;;;5128197;27;20443;-69
2022/03/14 09:41:43;;;;;;;4.57;1.10;;;;;;;;;;5129263;27;20442;-68
2022/03/14 09:44:10;;;;;;;5.67;1.40;;;;;;;;;;5130484;27;20533;-68
2022/03/14 09:46:39;;;;;;;1.37;0.90;;;;;;;;;;5123422;27;20447;-68
2022/03/14 09:49:08;;;;;;;3.00;1.10;;;;;;;;;;5125649;27;20443;-68
2022/03/14 09:51:38;;;;;;;3.50;1.17;;;;;;;;;;5129624;27;20892;-69
2022/03/14 09:54:06;;;;;;;0.93;0.87;;;;;;;;;;5128825;27;20466;-68
2022/03/14 09:56:33;;;;;;;2.30;0.97;;;;;;;;;;5130235;27;20443;-68
2022/03/14 09:59:01;;;;;;;2.70;1.30;;;;;;;;;;5131284;27;20469;-67
2022/03/14 10:01:29;;;;;;;2.10;0.70;;;;;;;;;;5129878;27;20908;-68
2022/03/14 10:03:58;;;;;;;1.80;0.63;;;;;;;;;;5131267;27;20442;-68
2022/03/14 10:06:25;;;;;;;2.90;1.30;;;;;;;;;;5129811;27;20470;-68
2022/03/14 10:08:52;;;;;;;2.57;1.00;;;;;;;;;;5130165;27;20440;-68
2022/03/14 10:11:20;;;;;;;4.50;2.07;;;;;;;;;;5127375;27;20471;-69
2022/03/14 10:13:47;;;;;;;2.87;1.30;;;;;;;;;;5129655;27;20484;-67
2022/03/14 10:16:14;;;;;;;2.00;1.00;;;;;;;;;;5127294;27;20462;-67
2022/03/14 10:18:52;;;;;;;3.03;1.03;;;;;;;;;;5119057;27;20478;-67
2022/03/14 10:21:31;;;;;;;7.03;1.13;;;;;;;;;;5128604;27;20448;-67
2022/03/14 10:24:00;;;;;;;3.17;1.47;;;;;;;;;;5129657;27;20789;-67
2022/03/14 10:26:29;;;;;;;1.33;1.07;;;;;;;;;;5126707;27;20703;-68
2022/03/14 10:28:57;;;;;;;3.50;1.10;;;;;;;;;;5127924;27;20530;-67
2022/03/14 10:31:31;;;;;;;1.57;0.90;;;;;;;;;;5129455;27;20497;-67
2022/03/14 10:34:03;;;;;;;1.37;0.80;;;;;;;;;;5124172;27;20953;-68
2022/03/14 10:36:42;;;;;;;2.53;1.47;;;;;;;;;;5130387;27;20466;-68
2022/03/14 10:39:16;;;;;;;3.30;0.90;;;;;;;;;;5129742;27;20807;-69
2022/03/14 10:41:45;;;;;;;1.63;0.73;;;;;;;;;;5121792;27;20461;-68
2022/03/14 10:44:23;;;;;;;1.90;1.10;;;;;;;;;;5128249;27;20435;-68
2022/03/14 10:46:50;;;;;;;1.57;1.13;;;;;;;;;;5123830;27;20438;-68
2022/03/14 10:49:17;;;;;;;2.40;0.93;;;;;;;;;;5130375;27;20808;-68
2022/03/14 10:51:55;;;;;;;4.00;0.90;;;;;;;;;;5123712;27;20985;-68
2022/03/14 10:54:22;;;;;;;2.70;0.90;;;;;;;;;;5129442;27;20474;-68
2022/03/14 10:57:06;;;;;;;1.80;1.00;;;;;;;;;;5128765;27;20439;-68
2022/03/14 10:59:33;;;;;;;2.93;1.00;;;;;;;;;;5128507;27;20990;-68
2022/03/14 11:02:01;;;;;;;1.90;0.90;;;;;;;;;;5130393;28;20450;-68
2022/03/14 11:04:28;;;;;;;2.20;1.37;;;;;;;;;;5128839;28;20455;-68
2022/03/14 11:07:01;;;;;;;1.10;0.80;;;;;;;;;;5127352;28;20456;-68
2022/03/14 11:09:41;;;;;;;2.30;0.80;;;;;;;;;;5127183;28;20896;-68
2022/03/14 11:12:08;;;;;;;7.10;1.03;;;;;;;;;;5128810;28;20508;-69
2022/03/14 11:14:36;;;;;;;1.27;0.70;;;;;;;;;;5128895;28;21277;-68
2022/03/14 11:17:16;;;;;;;2.77;1.30;;;;;;;;;;5129485;28;20527;-69
2022/03/14 11:19:44;;;;;;;1.30;0.90;;;;;;;;;;5128467;28;20447;-67
2022/03/14 11:22:14;;;;;;;6.50;0.87;;;;;;;;;;5126341;28;20470;-69
2022/03/14 11:24:42;;;;;;;1.57;0.90;;;;;;;;;;5124691;27;20537;-67
2022/03/14 11:27:12;;;;;;;1.23;0.80;;;;;;;;;;5131558;27;20512;-67
2022/03/14 11:29:40;;;;;;;4.83;1.20;;;;;;;;;;5126693;27;20454;-69
2022/03/14 11:32:09;;;;;;;3.13;1.00;;;;;;;;;;5127580;27;20670;-68
2022/03/14 11:34:37;;;;;;;2.13;1.10;;;;;;;;;;5130861;27;20451;-67
2022/03/14 11:37:04;;;;;;;0.93;0.73;;;;;;;;;;5132077;27;20455;-67
2022/03/14 11:39:34;;;;;;;3.33;0.90;;;;;;;;;;5128841;27;20533;-67
2022/03/14 11:42:01;;;;;;;2.50;1.00;;;;;;;;;;5128811;27;20451;-69
2022/03/14 11:44:29;;;;;;;2.43;0.77;;;;;;;;;;5132327;27;20787;-69
2022/03/14 11:46:57;;;;;;;2.27;1.37;;;;;;;;;;5134017;27;20446;-68
2022/03/14 11:49:26;;;;;;;2.23;1.00;;;;;;;;;;5129637;27;20442;-67
2022/03/14 11:52:06;;;;;;;3.27;1.00;;;;;;;;;;5133282;27;20577;-68
2022/03/14 11:54:38;;;;;;;1.23;0.83;;;;;;;;;;5131460;27;20447;-68
2022/03/14 11:57:06;;;;;;;3.23;1.73;;;;;;;;;;5134029;27;20439;-67
2022/03/14 11:59:34;;;;;;;1.67;1.17;;;;;;;;;;5126766;27;20457;-68
2022/03/14 12:02:02;;;;;;;1.90;1.40;;;;;;;;;;5126141;27;20450;-68
2022/03/14 12:04:30;;;;;;;3.20;0.77;;;;;;;;;;5131569;27;20569;-68
2022/03/14 12:07:07;;;;;;;5.50;1.20;;;;;;;;;;5132949;27;20464;-68
2022/03/14 12:09:45;;;;;;;1.77;1.10;;;;;;;;;;5128130;27;20438;-68
2022/03/14 12:12:31;;;;;;;4.03;0.90;;;;;;;;;;5134157;27;20474;-68
2022/03/14 12:14:59;;;;;;;1.80;0.80;;;;;;;;;;5132706;27;20442;-68
2022/03/14 12:17:27;;;;;;;1.60;0.80;;;;;;;;;;5134143;27;20435;-68
2022/03/14 12:19:56;;;;;;;3.30;1.00;;;;;;;;;;5132449;27;20447;-68
2022/03/14 12:22:44;;;;;;;2.40;1.10;;;;;;;;;;5129072;27;20512;-67
2022/03/14 12:25:14;;;;;;;1.57;0.67;;;;;;;;;;5131267;27;20435;-67
2022/03/14 12:27:42;;;;;;;2.03;1.37;;;;;;;;;;5127618;27;20453;-69
2022/03/14 12:30:25;;;;;;;2.70;0.80;;;;;;;;;;5133528;27;20447;-68
2022/03/14 12:32:54;;;;;;;1.13;0.80;;;;;;;;;;5132301;27;20482;-68
2022/03/14 12:35:27;;;;;;;1.47;0.90;;;;;;;;;;5133150;27;20500;-67
2022/03/14 12:37:55;;;;;;;0.90;0.77;;;;;;;;;;5126038;27;20442;-68
2022/03/14 12:40:43;;;;;;;2.47;1.30;;;;;;;;;;5132859;27;20447;-68
2022/03/14 12:43:11;;;;;;;3.90;0.90;;;;;;;;;;5130174;27;20462;-68
2022/03/14 12:45:39;;;;;;;2.83;1.23;;;;;;;;;;5130577;27;20443;-68
2022/03/14 12:48:15;;;;;;;1.83;1.00;;;;;;;;;;5127985;27;20438;-67
2022/03/14 12:50:46;;;;;;;1.20;1.10;;;;;;;;;;5132162;27;20474;-67
2022/03/14 12:53:15;;;;;;;0.90;0.70;;;;;;;;;;5129840;27;20950;-67
2022/03/14 12:55:46;;;;;;;2.70;0.80;;;;;;;;;;5131507;27;20443;-68
2022/03/14 12:58:18;;;;;;;1.73;0.87;;;;;;;;;;5133588;27;20799;-68
2022/03/14 13:00:45;;;;;;;1.20;0.70;;;;;;;;;;5132668;27;20892;-67
2022/03/14 13:03:13;;;;;;;2.67;0.73;;;;;;;;;;5130380;27;20518;-67
2022/03/14 13:05:41;;;;;;;1.57;0.80;;;;;;;;;;5131733;27;20446;-66
2022/03/14 13:08:08;;;;;;;10.20;1.10;;;;;;;;;;5132826;27;20443;-69
2022/03/14 13:10:40;;;;;;;4.23;0.87;;;;;;;;;;5132131;27;20437;-67
2022/03/14 13:13:10;;;;;;;3.17;0.80;;;;;;;;;;5132484;27;20569;-67
2022/03/14 13:15:38;;;;;;;1.67;0.70;;;;;;;;;;5130304;27;20538;-68
2022/03/14 13:18:17;;;;;;;1.90;1.10;;;;;;;;;;5118931;27;20445;-69
2022/03/14 13:20:46;;;;;;;2.20;0.77;;;;;;;;;;5122568;27;20553;-69
2022/03/14 13:23:16;;;;;;;2.40;1.00;;;;;;;;;;5126241;27;20471;-69
2022/03/14 13:25:47;;;;;;;1.90;1.07;;;;;;;;;;5129729;27;20485;-68
2022/03/14 13:28:27;;;;;;;2.70;0.80;;;;;;;;;;5126155;27;20444;-69
2022/03/14 13:30:55;;;;;;;1.20;0.83;;;;;;;;;;5128504;27;20482;-68
2022/03/14 13:33:26;;;;;;;7.37;1.20;;;;;;;;;;5130277;27;20446;-68
2022/03/14 13:35:55;;;;;;;1.63;1.10;;;;;;;;;;5127674;27;20512;-69
2022/03/14 13:38:29;;;;;;;2.47;1.10;;;;;;;;;;5126675;27;20991;-68
2022/03/14 13:40:57;;;;;;;1.80;1.17;;;;;;;;;;5128300;27;20933;-69
2022/03/14 13:43:24;;;;;;;0.80;0.70;;;;;;;;;;5128823;27;20450;-68
2022/03/14 13:45:53;;;;;;;2.50;1.00;;;;;;;;;;5132053;27;20474;-69
2022/03/14 13:48:24;;;;;;;2.13;1.00;;;;;;;;;;5133134;27;20439;-68
2022/03/14 13:50:51;;;;;;;1.90;0.93;;;;;;;;;;5126965;27;20443;-69
2022/03/14 13:53:22;;;;;;;1.80;1.40;;;;;;;;;;5127921;27;20569;-70
2022/03/14 13:55:53;;;;;;;1.50;0.80;;;;;;;;;;5129101;27;20446;-68
2022/03/14 13:58:24;;;;;;;1.80;1.00;;;;;;;;;;5130377;27;20445;-69
2022/03/14 14:00:53;;;;;;;1.60;0.90;;;;;;;;;;5131315;27;20484;-68
2022/03/14 14:03:24;;;;;;;2.03;1.03;;;;;;;;;;5128755;27;20546;-69